sensor_id;sensor_type;location;lat;lon;timestamp;P1;durP1;ratioP1;P2;durP2;ratioP2
10845;SDS011;5476;51.540;7.186;2023-05-10T00:01:07;12.80;;;9.18;;
10845;SDS011;5476;51.540;7.186;2023-05-10T00:03:36;11.88;;;8.48;;
10845;SDS011;5476;51.540;7.186;2023-05-10T00:06:03;10.18;;;8.48;;
10845;SDS011;5476;51.540;7.186;2023-05-10T00:08:30;12.82;;;9.05;;
10845;SDS011;5476;51.540;7.186;2023-05-10T00:10:57;11.50;;;9.25;;
10845;SDS011;5476;51.540;7.186;2023-05-10T00:13:24;10.90;;;8.80;;
10845;SDS011;5476;51.540;7.186;2023-05-10T00:15:51;12.13;;;10.00;;
10845;SDS011;5476;51.540;7.186;2023-05-10T00:18:18;13.25;;;10.48;;
10845;SDS011;5476;51.540;7.186;2023-05-10T00:20:47;13.57;;;10.95;;
10845;SDS011;5476;51.540;7.186;2023-05-10T00:23:14;16.35;;;11.85;;
10845;SDS011;5476;51.540;7.186;2023-05-10T00:25:41;15.68;;;11.90;;
10845;SDS011;5476;51.540;7.186;2023-05-10T00:28:08;15.55;;;12.77;;
10845;SDS011;5476;51.540;7.186;2023-05-10T00:30:35;18.25;;;12.82;;
10845;SDS011;5476;51.540;7.186;2023-05-10T00:33:02;16.05;;;12.25;;
10845;SDS011;5476;51.540;7.186;2023-05-10T00:35:29;17.45;;;12.50;;
10845;SDS011;5476;51.540;7.186;2023-05-10T00:37:57;17.55;;;12.80;;
10845;SDS011;5476;51.540;7.186;2023-05-10T00:40:24;19.23;;;13.40;;
10845;SDS011;5476;51.540;7.186;2023-05-10T00:42:51;17.15;;;12.80;;
10845;SDS011;5476;51.540;7.186;2023-05-10T00:45:18;19.20;;;12.63;;
10845;SDS011;5476;51.540;7.186;2023-05-10T00:47:45;19.30;;;12.40;;
10845;SDS011;5476;51.540;7.186;2023-05-10T00:50:12;18.92;;;13.07;;
10845;SDS011;5476;51.540;7.186;2023-05-10T00:52:40;18.25;;;11.90;;
10845;SDS011;5476;51.540;7.186;2023-05-10T00:55:10;16.88;;;11.82;;
10845;SDS011;5476;51.540;7.186;2023-05-10T00:57:38;14.68;;;10.38;;
10845;SDS011;5476;51.540;7.186;2023-05-10T01:00:05;14.77;;;10.05;;
10845;SDS011;5476;51.540;7.186;2023-05-10T01:02:33;15.38;;;9.95;;
10845;SDS011;5476;51.540;7.186;2023-05-10T01:05:00;14.85;;;9.75;;
10845;SDS011;5476;51.540;7.186;2023-05-10T01:07:30;18.23;;;10.48;;
10845;SDS011;5476;51.540;7.186;2023-05-10T01:09:57;17.50;;;10.55;;
10845;SDS011;5476;51.540;7.186;2023-05-10T01:12:26;15.77;;;10.43;;
10845;SDS011;5476;51.540;7.186;2023-05-10T01:14:54;15.70;;;10.05;;
10845;SDS011;5476;51.540;7.186;2023-05-10T01:17:21;14.00;;;9.65;;
10845;SDS011;5476;51.540;7.186;2023-05-10T01:19:49;11.85;;;8.73;;
10845;SDS011;5476;51.540;7.186;2023-05-10T01:22:23;12.00;;;7.88;;
10845;SDS011;5476;51.540;7.186;2023-05-10T01:25:37;10.35;;;7.38;;
10845;SDS011;5476;51.540;7.186;2023-05-10T01:28:32;9.65;;;7.18;;
10845;SDS011;5476;51.540;7.186;2023-05-10T01:31:22;10.70;;;6.75;;
10845;SDS011;5476;51.540;7.186;2023-05-10T01:34:02;9.70;;;6.20;;
10845;SDS011;5476;51.540;7.186;2023-05-10T01:36:35;6.18;;;5.05;;
10845;SDS011;5476;51.540;7.186;2023-05-10T01:39:09;9.07;;;5.22;;
10845;SDS011;5476;51.540;7.186;2023-05-10T01:41:55;7.50;;;5.40;;
10845;SDS011;5476;51.540;7.186;2023-05-10T01:44:29;7.82;;;5.65;;
10845;SDS011;5476;51.540;7.186;2023-05-10T01:47:02;6.30;;;5.40;;
10845;SDS011;5476;51.540;7.186;2023-05-10T01:49:36;7.68;;;5.75;;
10845;SDS011;5476;51.540;7.186;2023-05-10T01:52:08;8.15;;;5.00;;
10845;SDS011;5476;51.540;7.186;2023-05-10T01:54:38;7.00;;;5.25;;
10845;SDS011;5476;51.540;7.186;2023-05-10T01:57:09;7.35;;;5.55;;
10845;SDS011;5476;51.540;7.186;2023-05-10T01:59:39;6.80;;;5.60;;
10845;SDS011;5476;51.540;7.186;2023-05-10T02:02:09;9.55;;;6.30;;
10845;SDS011;5476;51.540;7.186;2023-05-10T02:04:38;8.32;;;6.40;;
10845;SDS011;5476;51.540;7.186;2023-05-10T02:07:07;8.93;;;7.07;;
10845;SDS011;5476;51.540;7.186;2023-05-10T02:09:35;11.82;;;7.10;;
10845;SDS011;5476;51.540;7.186;2023-05-10T02:12:04;10.15;;;7.57;;
10845;SDS011;5476;51.540;7.186;2023-05-10T02:14:34;10.50;;;7.72;;
10845;SDS011;5476;51.540;7.186;2023-05-10T02:17:03;9.77;;;7.80;;
10845;SDS011;5476;51.540;7.186;2023-05-10T02:19:32;11.02;;;8.50;;
10845;SDS011;5476;51.540;7.186;2023-05-10T02:22:03;10.40;;;8.50;;
10845;SDS011;5476;51.540;7.186;2023-05-10T02:24:31;12.07;;;8.88;;
10845;SDS011;5476;51.540;7.186;2023-05-10T02:27:00;12.68;;;8.35;;
10845;SDS011;5476;51.540;7.186;2023-05-10T02:29:28;13.27;;;8.50;;
10845;SDS011;5476;51.540;7.186;2023-05-10T02:31:57;11.48;;;7.85;;
10845;SDS011;5476;51.540;7.186;2023-05-10T02:34:26;13.25;;;8.45;;
10845;SDS011;5476;51.540;7.186;2023-05-10T02:36:54;12.27;;;7.93;;
10845;SDS011;5476;51.540;7.186;2023-05-10T02:39:23;11.77;;;8.93;;
10845;SDS011;5476;51.540;7.186;2023-05-10T02:41:53;13.15;;;9.02;;
10845;SDS011;5476;51.540;7.186;2023-05-10T02:44:21;13.05;;;8.13;;
10845;SDS011;5476;51.540;7.186;2023-05-10T02:46:49;11.93;;;8.40;;
10845;SDS011;5476;51.540;7.186;2023-05-10T02:49:17;11.50;;;8.27;;
10845;SDS011;5476;51.540;7.186;2023-05-10T02:51:47;12.95;;;8.73;;
10845;SDS011;5476;51.540;7.186;2023-05-10T02:54:18;13.48;;;9.15;;
10845;SDS011;5476;51.540;7.186;2023-05-10T02:56:50;10.93;;;8.40;;
10845;SDS011;5476;51.540;7.186;2023-05-10T02:59:20;13.02;;;9.15;;
10845;SDS011;5476;51.540;7.186;2023-05-10T03:01:47;15.13;;;9.50;;
10845;SDS011;5476;51.540;7.186;2023-05-10T03:04:14;12.70;;;8.77;;
10845;SDS011;5476;51.540;7.186;2023-05-10T03:06:41;13.55;;;8.43;;
10845;SDS011;5476;51.540;7.186;2023-05-10T03:09:08;13.73;;;9.52;;
10845;SDS011;5476;51.540;7.186;2023-05-10T03:11:39;15.57;;;10.20;;
10845;SDS011;5476;51.540;7.186;2023-05-10T03:14:21;14.50;;;10.23;;
10845;SDS011;5476;51.540;7.186;2023-05-10T03:16:56;14.10;;;10.00;;
10845;SDS011;5476;51.540;7.186;2023-05-10T03:19:30;19.02;;;11.77;;
10845;SDS011;5476;51.540;7.186;2023-05-10T03:22:03;16.55;;;11.73;;
10845;SDS011;5476;51.540;7.186;2023-05-10T03:24:35;18.30;;;12.00;;
10845;SDS011;5476;51.540;7.186;2023-05-10T03:27:02;19.88;;;12.63;;
10845;SDS011;5476;51.540;7.186;2023-05-10T03:29:32;19.67;;;12.38;;
10845;SDS011;5476;51.540;7.186;2023-05-10T03:32:00;18.90;;;12.88;;
10845;SDS011;5476;51.540;7.186;2023-05-10T03:34:27;19.52;;;12.63;;
10845;SDS011;5476;51.540;7.186;2023-05-10T03:36:56;18.20;;;12.68;;
10845;SDS011;5476;51.540;7.186;2023-05-10T03:39:23;20.30;;;13.40;;
10845;SDS011;5476;51.540;7.186;2023-05-10T03:41:50;18.67;;;12.43;;
10845;SDS011;5476;51.540;7.186;2023-05-10T03:44:17;17.80;;;12.38;;
10845;SDS011;5476;51.540;7.186;2023-05-10T03:46:46;18.83;;;12.63;;
10845;SDS011;5476;51.540;7.186;2023-05-10T03:49:13;19.15;;;12.32;;
10845;SDS011;5476;51.540;7.186;2023-05-10T03:51:40;18.88;;;12.82;;
10845;SDS011;5476;51.540;7.186;2023-05-10T03:54:06;21.38;;;13.15;;
10845;SDS011;5476;51.540;7.186;2023-05-10T03:56:33;18.08;;;11.95;;
10845;SDS011;5476;51.540;7.186;2023-05-10T03:59:00;19.92;;;12.40;;
10845;SDS011;5476;51.540;7.186;2023-05-10T04:01:32;22.10;;;12.82;;
10845;SDS011;5476;51.540;7.186;2023-05-10T04:04:00;20.40;;;12.70;;
10845;SDS011;5476;51.540;7.186;2023-05-10T04:06:27;18.13;;;12.52;;
10845;SDS011;5476;51.540;7.186;2023-05-10T04:08:54;22.63;;;14.25;;
10845;SDS011;5476;51.540;7.186;2023-05-10T04:11:21;23.83;;;13.98;;
10845;SDS011;5476;51.540;7.186;2023-05-10T04:13:49;25.92;;;14.50;;
10845;SDS011;5476;51.540;7.186;2023-05-10T04:16:16;30.42;;;15.07;;
10845;SDS011;5476;51.540;7.186;2023-05-10T04:18:43;23.92;;;13.85;;
10845;SDS011;5476;51.540;7.186;2023-05-10T04:21:14;29.58;;;15.13;;
10845;SDS011;5476;51.540;7.186;2023-05-10T04:23:41;23.48;;;14.57;;
10845;SDS011;5476;51.540;7.186;2023-05-10T04:26:08;28.50;;;16.02;;
10845;SDS011;5476;51.540;7.186;2023-05-10T04:28:35;28.17;;;16.35;;
10845;SDS011;5476;51.540;7.186;2023-05-10T04:31:04;25.33;;;15.25;;
10845;SDS011;5476;51.540;7.186;2023-05-10T04:33:31;27.02;;;15.63;;
10845;SDS011;5476;51.540;7.186;2023-05-10T04:35:59;28.77;;;15.52;;
10845;SDS011;5476;51.540;7.186;2023-05-10T04:38:27;27.90;;;17.02;;
10845;SDS011;5476;51.540;7.186;2023-05-10T04:41:03;29.08;;;17.15;;
10845;SDS011;5476;51.540;7.186;2023-05-10T04:43:30;31.13;;;18.40;;
10845;SDS011;5476;51.540;7.186;2023-05-10T04:45:57;33.75;;;19.05;;
10845;SDS011;5476;51.540;7.186;2023-05-10T04:48:24;32.53;;;18.60;;
10845;SDS011;5476;51.540;7.186;2023-05-10T04:50:51;38.40;;;19.98;;
10845;SDS011;5476;51.540;7.186;2023-05-10T04:53:18;38.53;;;20.75;;
10845;SDS011;5476;51.540;7.186;2023-05-10T04:55:46;35.35;;;21.70;;
10845;SDS011;5476;51.540;7.186;2023-05-10T04:58:13;41.75;;;22.77;;
10845;SDS011;5476;51.540;7.186;2023-05-10T05:00:40;40.75;;;23.13;;
10845;SDS011;5476;51.540;7.186;2023-05-10T05:03:07;43.80;;;24.50;;
10845;SDS011;5476;51.540;7.186;2023-05-10T05:05:34;46.38;;;24.75;;
10845;SDS011;5476;51.540;7.186;2023-05-10T05:08:02;46.95;;;25.90;;
10845;SDS011;5476;51.540;7.186;2023-05-10T05:10:29;50.47;;;26.70;;
10845;SDS011;5476;51.540;7.186;2023-05-10T05:12:57;50.20;;;27.17;;
10845;SDS011;5476;51.540;7.186;2023-05-10T05:15:24;52.17;;;26.85;;
10845;SDS011;5476;51.540;7.186;2023-05-10T05:17:51;50.05;;;25.65;;
10845;SDS011;5476;51.540;7.186;2023-05-10T05:20:18;51.15;;;27.40;;
10845;SDS011;5476;51.540;7.186;2023-05-10T05:22:45;51.92;;;27.17;;
10845;SDS011;5476;51.540;7.186;2023-05-10T05:25:12;54.95;;;28.10;;
10845;SDS011;5476;51.540;7.186;2023-05-10T05:27:40;51.10;;;27.60;;
10845;SDS011;5476;51.540;7.186;2023-05-10T05:30:09;52.25;;;27.25;;
10845;SDS011;5476;51.540;7.186;2023-05-10T05:32:36;53.95;;;28.02;;
10845;SDS011;5476;51.540;7.186;2023-05-10T05:35:03;49.30;;;28.60;;
10845;SDS011;5476;51.540;7.186;2023-05-10T05:37:31;55.85;;;28.52;;
10845;SDS011;5476;51.540;7.186;2023-05-10T05:39:58;54.58;;;29.23;;
10845;SDS011;5476;51.540;7.186;2023-05-10T05:42:26;55.90;;;29.10;;
10845;SDS011;5476;51.540;7.186;2023-05-10T05:44:53;55.22;;;29.13;;
10845;SDS011;5476;51.540;7.186;2023-05-10T05:47:21;58.22;;;29.98;;
10845;SDS011;5476;51.540;7.186;2023-05-10T05:49:51;56.33;;;29.95;;
10845;SDS011;5476;51.540;7.186;2023-05-10T05:52:18;57.85;;;29.95;;
10845;SDS011;5476;51.540;7.186;2023-05-10T05:54:44;55.50;;;29.80;;
10845;SDS011;5476;51.540;7.186;2023-05-10T05:57:11;59.30;;;29.95;;
10845;SDS011;5476;51.540;7.186;2023-05-10T05:59:38;63.15;;;30.25;;
10845;SDS011;5476;51.540;7.186;2023-05-10T06:02:08;59.22;;;31.63;;
10845;SDS011;5476;51.540;7.186;2023-05-10T06:04:37;57.83;;;31.73;;
10845;SDS011;5476;51.540;7.186;2023-05-10T06:07:04;57.60;;;30.52;;
10845;SDS011;5476;51.540;7.186;2023-05-10T06:09:31;60.45;;;30.90;;
10845;SDS011;5476;51.540;7.186;2023-05-10T06:11:58;56.70;;;30.95;;
10845;SDS011;5476;51.540;7.186;2023-05-10T06:14:25;59.45;;;32.22;;
10845;SDS011;5476;51.540;7.186;2023-05-10T06:16:52;60.22;;;32.78;;
10845;SDS011;5476;51.540;7.186;2023-05-10T06:19:19;58.80;;;32.58;;
10845;SDS011;5476;51.540;7.186;2023-05-10T06:21:47;56.85;;;33.28;;
10845;SDS011;5476;51.540;7.186;2023-05-10T06:24:14;55.97;;;31.92;;
10845;SDS011;5476;51.540;7.186;2023-05-10T06:26:41;56.67;;;31.23;;
10845;SDS011;5476;51.540;7.186;2023-05-10T06:29:08;52.78;;;30.45;;
10845;SDS011;5476;51.540;7.186;2023-05-10T06:31:35;55.70;;;32.05;;
10845;SDS011;5476;51.540;7.186;2023-05-10T06:34:02;56.38;;;32.28;;
10845;SDS011;5476;51.540;7.186;2023-05-10T06:36:29;56.63;;;31.73;;
10845;SDS011;5476;51.540;7.186;2023-05-10T06:39:02;55.00;;;30.70;;
10845;SDS011;5476;51.540;7.186;2023-05-10T06:42:09;56.60;;;30.75;;
10845;SDS011;5476;51.540;7.186;2023-05-10T06:44:35;55.05;;;30.50;;
10845;SDS011;5476;51.540;7.186;2023-05-10T06:47:02;53.40;;;30.85;;
10845;SDS011;5476;51.540;7.186;2023-05-10T06:49:29;50.58;;;29.73;;
10845;SDS011;5476;51.540;7.186;2023-05-10T06:51:56;51.85;;;31.02;;
10845;SDS011;5476;51.540;7.186;2023-05-10T06:54:25;50.65;;;30.92;;
10845;SDS011;5476;51.540;7.186;2023-05-10T06:56:51;49.40;;;30.15;;
10845;SDS011;5476;51.540;7.186;2023-05-10T06:59:19;51.33;;;30.65;;
10845;SDS011;5476;51.540;7.186;2023-05-10T07:01:46;47.72;;;29.23;;
10845;SDS011;5476;51.540;7.186;2023-05-10T07:04:13;47.85;;;28.38;;
10845;SDS011;5476;51.540;7.186;2023-05-10T07:06:40;47.25;;;29.52;;
10845;SDS011;5476;51.540;7.186;2023-05-10T07:09:07;49.53;;;28.52;;
10845;SDS011;5476;51.540;7.186;2023-05-10T07:11:35;47.10;;;28.95;;
10845;SDS011;5476;51.540;7.186;2023-05-10T07:14:02;51.33;;;29.50;;
10845;SDS011;5476;51.540;7.186;2023-05-10T07:16:30;45.50;;;27.33;;
10845;SDS011;5476;51.540;7.186;2023-05-10T07:18:57;45.67;;;27.80;;
10845;SDS011;5476;51.540;7.186;2023-05-10T07:21:24;50.05;;;28.15;;
10845;SDS011;5476;51.540;7.186;2023-05-10T07:23:53;47.45;;;27.98;;
10845;SDS011;5476;51.540;7.186;2023-05-10T07:26:20;47.65;;;28.77;;
10845;SDS011;5476;51.540;7.186;2023-05-10T07:28:48;48.85;;;29.15;;
10845;SDS011;5476;51.540;7.186;2023-05-10T07:31:15;46.22;;;27.70;;
10845;SDS011;5476;51.540;7.186;2023-05-10T07:33:42;44.55;;;27.33;;
10845;SDS011;5476;51.540;7.186;2023-05-10T07:36:09;44.65;;;27.17;;
10845;SDS011;5476;51.540;7.186;2023-05-10T07:38:36;45.00;;;26.45;;
10845;SDS011;5476;51.540;7.186;2023-05-10T07:41:03;47.63;;;29.60;;
10845;SDS011;5476;51.540;7.186;2023-05-10T07:43:30;45.92;;;28.65;;
10845;SDS011;5476;51.540;7.186;2023-05-10T07:45:58;46.90;;;29.23;;
10845;SDS011;5476;51.540;7.186;2023-05-10T07:48:25;46.17;;;28.85;;
10845;SDS011;5476;51.540;7.186;2023-05-10T07:50:52;45.38;;;28.15;;
10845;SDS011;5476;51.540;7.186;2023-05-10T07:53:19;48.85;;;31.00;;
10845;SDS011;5476;51.540;7.186;2023-05-10T07:55:49;50.05;;;31.30;;
10845;SDS011;5476;51.540;7.186;2023-05-10T07:58:16;44.70;;;28.67;;
10845;SDS011;5476;51.540;7.186;2023-05-10T08:00:43;47.63;;;28.60;;
10845;SDS011;5476;51.540;7.186;2023-05-10T08:03:12;42.38;;;28.15;;
10845;SDS011;5476;51.540;7.186;2023-05-10T08:05:38;42.15;;;27.88;;
10845;SDS011;5476;51.540;7.186;2023-05-10T08:08:07;45.17;;;28.35;;
10845;SDS011;5476;51.540;7.186;2023-05-10T08:10:34;40.58;;;27.63;;
10845;SDS011;5476;51.540;7.186;2023-05-10T08:13:01;44.25;;;27.63;;
10845;SDS011;5476;51.540;7.186;2023-05-10T08:15:27;44.75;;;26.95;;
10845;SDS011;5476;51.540;7.186;2023-05-10T08:17:54;41.70;;;26.15;;
10845;SDS011;5476;51.540;7.186;2023-05-10T08:20:23;44.65;;;26.92;;
10845;SDS011;5476;51.540;7.186;2023-05-10T08:22:50;42.22;;;25.25;;
10845;SDS011;5476;51.540;7.186;2023-05-10T08:25:17;44.15;;;26.40;;
10845;SDS011;5476;51.540;7.186;2023-05-10T08:27:44;42.92;;;25.55;;
10845;SDS011;5476;51.540;7.186;2023-05-10T08:30:13;45.97;;;27.05;;
10845;SDS011;5476;51.540;7.186;2023-05-10T08:32:40;39.10;;;23.27;;
10845;SDS011;5476;51.540;7.186;2023-05-10T08:35:07;35.53;;;22.13;;
10845;SDS011;5476;51.540;7.186;2023-05-10T08:37:35;37.00;;;22.52;;
10845;SDS011;5476;51.540;7.186;2023-05-10T08:40:02;35.33;;;22.35;;
10845;SDS011;5476;51.540;7.186;2023-05-10T08:42:30;38.47;;;22.50;;
10845;SDS011;5476;51.540;7.186;2023-05-10T08:45:01;38.30;;;22.52;;
10845;SDS011;5476;51.540;7.186;2023-05-10T08:47:29;37.38;;;22.23;;
10845;SDS011;5476;51.540;7.186;2023-05-10T08:49:56;34.95;;;20.15;;
10845;SDS011;5476;51.540;7.186;2023-05-10T08:52:25;32.95;;;18.80;;
10845;SDS011;5476;51.540;7.186;2023-05-10T08:54:55;31.70;;;20.65;;
10845;SDS011;5476;51.540;7.186;2023-05-10T08:57:23;30.75;;;18.77;;
10845;SDS011;5476;51.540;7.186;2023-05-10T08:59:49;24.35;;;16.42;;
10845;SDS011;5476;51.540;7.186;2023-05-10T09:02:17;25.67;;;16.77;;
10845;SDS011;5476;51.540;7.186;2023-05-10T09:04:46;23.30;;;14.80;;
10845;SDS011;5476;51.540;7.186;2023-05-10T09:07:13;23.95;;;15.38;;
10845;SDS011;5476;51.540;7.186;2023-05-10T09:09:41;23.23;;;14.20;;
10845;SDS011;5476;51.540;7.186;2023-05-10T09:12:10;25.85;;;15.13;;
10845;SDS011;5476;51.540;7.186;2023-05-10T09:14:37;23.33;;;15.95;;
10845;SDS011;5476;51.540;7.186;2023-05-10T09:17:05;28.58;;;16.17;;
10845;SDS011;5476;51.540;7.186;2023-05-10T09:19:46;25.35;;;15.68;;
10845;SDS011;5476;51.540;7.186;2023-05-10T09:22:13;22.30;;;15.02;;
10845;SDS011;5476;51.540;7.186;2023-05-10T09:24:40;23.58;;;14.95;;
10845;SDS011;5476;51.540;7.186;2023-05-10T09:27:11;21.80;;;14.27;;
10845;SDS011;5476;51.540;7.186;2023-05-10T09:29:38;25.63;;;15.80;;
10845;SDS011;5476;51.540;7.186;2023-05-10T09:32:06;22.33;;;15.73;;
10845;SDS011;5476;51.540;7.186;2023-05-10T09:34:33;26.88;;;17.05;;
10845;SDS011;5476;51.540;7.186;2023-05-10T09:37:04;23.70;;;16.42;;
10845;SDS011;5476;51.540;7.186;2023-05-10T09:39:33;26.42;;;17.92;;
10845;SDS011;5476;51.540;7.186;2023-05-10T09:42:02;28.15;;;18.10;;
10845;SDS011;5476;51.540;7.186;2023-05-10T09:44:37;25.50;;;17.67;;
10845;SDS011;5476;51.540;7.186;2023-05-10T09:47:19;20.58;;;15.88;;
10845;SDS011;5476;51.540;7.186;2023-05-10T09:49:49;22.50;;;17.65;;
10845;SDS011;5476;51.540;7.186;2023-05-10T09:52:21;24.60;;;17.27;;
10845;SDS011;5476;51.540;7.186;2023-05-10T09:54:54;23.45;;;15.95;;
10845;SDS011;5476;51.540;7.186;2023-05-10T09:57:29;21.10;;;14.52;;
10845;SDS011;5476;51.540;7.186;2023-05-10T10:08:04;21.30;;;15.40;;
10845;SDS011;5476;51.540;7.186;2023-05-10T10:13:52;28.88;;;19.45;;
10845;SDS011;5476;51.540;7.186;2023-05-10T10:16:20;32.70;;;22.65;;
10845;SDS011;5476;51.540;7.186;2023-05-10T10:18:54;37.85;;;24.88;;
10845;SDS011;5476;51.540;7.186;2023-05-10T10:21:44;35.45;;;24.00;;
10845;SDS011;5476;51.540;7.186;2023-05-10T10:28:13;29.20;;;19.70;;
10845;SDS011;5476;51.540;7.186;2023-05-10T10:30:49;31.25;;;20.17;;
10845;SDS011;5476;51.540;7.186;2023-05-10T10:36:22;31.67;;;21.30;;
10845;SDS011;5476;51.540;7.186;2023-05-10T10:38:57;27.48;;;19.48;;
10845;SDS011;5476;51.540;7.186;2023-05-10T10:41:32;25.40;;;17.48;;
10845;SDS011;5476;51.540;7.186;2023-05-10T10:46:59;20.83;;;16.10;;
10845;SDS011;5476;51.540;7.186;2023-05-10T10:49:48;21.85;;;16.10;;
10845;SDS011;5476;51.540;7.186;2023-05-10T10:52:24;21.13;;;14.75;;
10845;SDS011;5476;51.540;7.186;2023-05-10T10:54:59;17.42;;;13.90;;
10845;SDS011;5476;51.540;7.186;2023-05-10T10:57:27;17.48;;;13.55;;
10845;SDS011;5476;51.540;7.186;2023-05-10T11:02:48;18.40;;;13.27;;
10845;SDS011;5476;51.540;7.186;2023-05-10T11:08:12;19.27;;;13.52;;
10845;SDS011;5476;51.540;7.186;2023-05-10T11:10:50;21.25;;;14.10;;
10845;SDS011;5476;51.540;7.186;2023-05-10T11:13:26;23.00;;;15.38;;
10845;SDS011;5476;51.540;7.186;2023-05-10T11:15:55;23.10;;;18.65;;
10845;SDS011;5476;51.540;7.186;2023-05-10T11:18:24;26.15;;;20.50;;
10845;SDS011;5476;51.540;7.186;2023-05-10T11:20:56;26.40;;;20.60;;
10845;SDS011;5476;51.540;7.186;2023-05-10T11:23:28;32.15;;;24.48;;
10845;SDS011;5476;51.540;7.186;2023-05-10T11:25:58;35.58;;;26.73;;
10845;SDS011;5476;51.540;7.186;2023-05-10T11:28:26;33.45;;;27.88;;
10845;SDS011;5476;51.540;7.186;2023-05-10T11:30:54;34.88;;;26.95;;
10845;SDS011;5476;51.540;7.186;2023-05-10T11:33:22;35.38;;;27.45;;
10845;SDS011;5476;51.540;7.186;2023-05-10T11:35:49;31.67;;;25.70;;
10845;SDS011;5476;51.540;7.186;2023-05-10T11:38:16;38.58;;;26.30;;
10845;SDS011;5476;51.540;7.186;2023-05-10T11:40:45;30.52;;;24.02;;
10845;SDS011;5476;51.540;7.186;2023-05-10T11:43:13;27.30;;;22.90;;
10845;SDS011;5476;51.540;7.186;2023-05-10T11:45:40;25.77;;;20.60;;
10845;SDS011;5476;51.540;7.186;2023-05-10T11:48:07;23.73;;;18.27;;
10845;SDS011;5476;51.540;7.186;2023-05-10T11:50:34;20.83;;;15.60;;
10845;SDS011;5476;51.540;7.186;2023-05-10T11:53:01;19.50;;;15.82;;
10845;SDS011;5476;51.540;7.186;2023-05-10T11:55:28;19.20;;;15.75;;
10845;SDS011;5476;51.540;7.186;2023-05-10T11:58:01;17.58;;;14.52;;
10845;SDS011;5476;51.540;7.186;2023-05-10T12:00:30;21.13;;;15.52;;
10845;SDS011;5476;51.540;7.186;2023-05-10T12:02:59;19.33;;;14.30;;
10845;SDS011;5476;51.540;7.186;2023-05-10T12:05:27;15.07;;;12.20;;
10845;SDS011;5476;51.540;7.186;2023-05-10T12:10:39;15.75;;;12.40;;
10845;SDS011;5476;51.540;7.186;2023-05-10T12:13:10;17.73;;;13.93;;
10845;SDS011;5476;51.540;7.186;2023-05-10T12:15:39;18.35;;;14.57;;
10845;SDS011;5476;51.540;7.186;2023-05-10T12:18:07;18.27;;;14.40;;
10845;SDS011;5476;51.540;7.186;2023-05-10T12:20:35;20.50;;;14.18;;
10845;SDS011;5476;51.540;7.186;2023-05-10T12:23:02;22.73;;;19.15;;
10845;SDS011;5476;51.540;7.186;2023-05-10T12:25:31;18.55;;;15.77;;
10845;SDS011;5476;51.540;7.186;2023-05-10T12:27:59;20.00;;;14.07;;
10845;SDS011;5476;51.540;7.186;2023-05-10T12:30:29;16.90;;;13.20;;
10845;SDS011;5476;51.540;7.186;2023-05-10T12:33:06;16.38;;;13.43;;
10845;SDS011;5476;51.540;7.186;2023-05-10T12:35:43;16.02;;;12.90;;
10845;SDS011;5476;51.540;7.186;2023-05-10T12:38:27;15.23;;;12.98;;
10845;SDS011;5476;51.540;7.186;2023-05-10T12:40:59;16.98;;;13.55;;
10845;SDS011;5476;51.540;7.186;2023-05-10T12:43:27;17.80;;;14.60;;
10845;SDS011;5476;51.540;7.186;2023-05-10T12:45:54;17.48;;;13.95;;
10845;SDS011;5476;51.540;7.186;2023-05-10T12:48:24;17.02;;;15.13;;
10845;SDS011;5476;51.540;7.186;2023-05-10T12:50:51;19.08;;;13.63;;
10845;SDS011;5476;51.540;7.186;2023-05-10T12:53:17;19.17;;;14.80;;
10845;SDS011;5476;51.540;7.186;2023-05-10T12:55:46;18.90;;;14.30;;
10845;SDS011;5476;51.540;7.186;2023-05-10T12:58:13;19.63;;;15.25;;
10845;SDS011;5476;51.540;7.186;2023-05-10T13:00:40;17.95;;;14.63;;
10845;SDS011;5476;51.540;7.186;2023-05-10T13:03:08;17.52;;;14.70;;
10845;SDS011;5476;51.540;7.186;2023-05-10T13:05:37;15.10;;;12.70;;
10845;SDS011;5476;51.540;7.186;2023-05-10T13:08:04;14.68;;;12.75;;
10845;SDS011;5476;51.540;7.186;2023-05-10T13:10:31;16.63;;;13.18;;
10845;SDS011;5476;51.540;7.186;2023-05-10T13:12:58;15.38;;;11.85;;
10845;SDS011;5476;51.540;7.186;2023-05-10T13:15:26;15.18;;;12.02;;
10845;SDS011;5476;51.540;7.186;2023-05-10T13:17:53;15.23;;;10.02;;
10845;SDS011;5476;51.540;7.186;2023-05-10T13:20:20;12.88;;;10.00;;
10845;SDS011;5476;51.540;7.186;2023-05-10T13:22:49;10.48;;;9.25;;
10845;SDS011;5476;51.540;7.186;2023-05-10T13:25:16;10.55;;;8.38;;
10845;SDS011;5476;51.540;7.186;2023-05-10T13:27:43;11.18;;;8.60;;
10845;SDS011;5476;51.540;7.186;2023-05-10T13:30:10;9.05;;;8.13;;
10845;SDS011;5476;51.540;7.186;2023-05-10T13:32:37;9.75;;;7.80;;
10845;SDS011;5476;51.540;7.186;2023-05-10T13:35:05;9.75;;;8.07;;
10845;SDS011;5476;51.540;7.186;2023-05-10T13:37:32;8.45;;;7.10;;
10845;SDS011;5476;51.540;7.186;2023-05-10T13:40:04;8.85;;;7.50;;
10845;SDS011;5476;51.540;7.186;2023-05-10T13:42:31;9.13;;;6.88;;
10845;SDS011;5476;51.540;7.186;2023-05-10T13:44:59;9.05;;;6.65;;
10845;SDS011;5476;51.540;7.186;2023-05-10T13:47:26;6.82;;;5.53;;
10845;SDS011;5476;51.540;7.186;2023-05-10T13:49:53;6.30;;;5.70;;
10845;SDS011;5476;51.540;7.186;2023-05-10T13:52:21;6.75;;;5.60;;
10845;SDS011;5476;51.540;7.186;2023-05-10T13:54:48;7.28;;;5.22;;
10845;SDS011;5476;51.540;7.186;2023-05-10T13:57:18;6.97;;;5.40;;
10845;SDS011;5476;51.540;7.186;2023-05-10T13:59:45;6.72;;;5.05;;
10845;SDS011;5476;51.540;7.186;2023-05-10T14:02:13;7.95;;;4.97;;
10845;SDS011;5476;51.540;7.186;2023-05-10T14:04:40;6.53;;;5.70;;
10845;SDS011;5476;51.540;7.186;2023-05-10T14:07:10;5.50;;;4.82;;
10845;SDS011;5476;51.540;7.186;2023-05-10T14:09:36;6.38;;;4.30;;
10845;SDS011;5476;51.540;7.186;2023-05-10T14:12:03;7.00;;;4.97;;
10845;SDS011;5476;51.540;7.186;2023-05-10T14:14:32;7.95;;;4.60;;
10845;SDS011;5476;51.540;7.186;2023-05-10T14:16:59;5.20;;;4.60;;
10845;SDS011;5476;51.540;7.186;2023-05-10T14:19:26;5.10;;;4.30;;
10845;SDS011;5476;51.540;7.186;2023-05-10T14:21:55;5.25;;;4.28;;
10845;SDS011;5476;51.540;7.186;2023-05-10T14:24:22;6.75;;;5.07;;
10845;SDS011;5476;51.540;7.186;2023-05-10T14:27:08;7.50;;;5.30;;
10845;SDS011;5476;51.540;7.186;2023-05-10T14:29:40;7.35;;;5.38;;
10845;SDS011;5476;51.540;7.186;2023-05-10T14:32:07;5.40;;;4.88;;
10845;SDS011;5476;51.540;7.186;2023-05-10T14:34:34;6.50;;;5.25;;
10845;SDS011;5476;51.540;7.186;2023-05-10T14:37:01;6.43;;;4.97;;
10845;SDS011;5476;51.540;7.186;2023-05-10T14:39:27;7.45;;;6.00;;
10845;SDS011;5476;51.540;7.186;2023-05-10T14:41:55;7.82;;;5.38;;
10845;SDS011;5476;51.540;7.186;2023-05-10T14:44:23;6.25;;;5.30;;
10845;SDS011;5476;51.540;7.186;2023-05-10T14:46:51;6.53;;;5.90;;
10845;SDS011;5476;51.540;7.186;2023-05-10T14:49:18;9.25;;;7.88;;
10845;SDS011;5476;51.540;7.186;2023-05-10T14:51:47;9.15;;;7.00;;
10845;SDS011;5476;51.540;7.186;2023-05-10T14:54:14;7.70;;;6.82;;
10845;SDS011;5476;51.540;7.186;2023-05-10T14:56:41;8.00;;;7.20;;
10845;SDS011;5476;51.540;7.186;2023-05-10T14:59:08;7.30;;;6.10;;
10845;SDS011;5476;51.540;7.186;2023-05-10T15:01:35;7.95;;;7.22;;
10845;SDS011;5476;51.540;7.186;2023-05-10T15:04:04;8.52;;;6.75;;
10845;SDS011;5476;51.540;7.186;2023-05-10T15:06:31;8.05;;;7.25;;
10845;SDS011;5476;51.540;7.186;2023-05-10T15:08:59;8.23;;;6.70;;
10845;SDS011;5476;51.540;7.186;2023-05-10T15:11:26;9.82;;;7.55;;
10845;SDS011;5476;51.540;7.186;2023-05-10T15:13:54;9.10;;;6.97;;
10845;SDS011;5476;51.540;7.186;2023-05-10T15:16:21;9.43;;;7.15;;
10845;SDS011;5476;51.540;7.186;2023-05-10T15:18:48;8.32;;;6.82;;
10845;SDS011;5476;51.540;7.186;2023-05-10T15:21:16;9.52;;;6.82;;